Time;durP1;ratioP1;P1;durP2;ratioP2;P2;SDS_P1;SDS_P2;PMS_P1;PMS_P2;Temp;Humidity;BMP_temperature;BMP_pressure;BME280_temperature;BME280_humidity;BME280_pressure;Samples;Min_cycle;Max_cycle;Signal;HPM_P1;HPM_P2
2022/01/18 00:00:15;;;;;;;6.68;3.05;;;;;;;;;;4804582;29;20046;-79
2022/01/18 00:03:01;;;;;;;7.03;2.92;;;;;;;;;;4810363;29;20055;-80
2022/01/18 00:05:49;;;;;;;7.80;4.03;;;;;;;;;;4805339;29;20394;-79
2022/01/18 00:08:36;;;;;;;4.00;2.97;;;;;;;;;;4797622;29;20050;-82
2022/01/18 00:11:25;;;;;;;7.25;5.32;;;;;;;;;;4810868;29;20059;-80
2022/01/18 00:14:24;;;;;;;3.38;2.08;;;;;;;;;;4810371;29;20054;-80
2022/01/18 00:17:19;;;;;;;12.23;5.47;;;;;;;;;;4810070;29;20055;-81
2022/01/18 00:20:04;;;;;;;5.55;2.00;;;;;;;;;;4810543;29;20491;-81
2022/01/18 00:22:49;;;;;;;86.20;30.42;;;;;;;;;;4804121;29;20055;-82
2022/01/18 00:25:38;;;;;;;61.83;23.85;;;;;;;;;;4804141;29;20047;-81
2022/01/18 00:28:26;;;;;;;2.42;1.40;;;;;;;;;;4806777;29;20066;-83
2022/01/18 00:34:22;;;;;;;2.55;2.03;;;;;;;;;;4812658;29;20050;-77
2022/01/18 00:39:51;;;;;;;3.05;2.00;;;;;;;;;;4806155;29;20054;-81
2022/01/18 00:42:37;;;;;;;2.40;1.88;;;;;;;;;;4812613;29;20497;-81
2022/01/18 00:45:22;;;;;;;24.80;9.02;;;;;;;;;;4815047;29;20055;-81
2022/01/18 00:48:06;;;;;;;150.10;56.80;;;;;;;;;;4809909;29;20043;-81
2022/01/18 00:50:53;;;;;;;13.45;5.82;;;;;;;;;;4809443;29;20051;-82
2022/01/18 00:53:43;;;;;;;17.90;10.57;;;;;;;;;;4809433;29;20410;-80
2022/01/18 00:56:31;;;;;;;24.30;18.25;;;;;;;;;;4809792;29;20467;-81
2022/01/18 00:59:16;;;;;;;2.97;2.17;;;;;;;;;;4815024;29;20051;-82
2022/01/18 01:02:02;;;;;;;4.20;2.28;;;;;;;;;;4809313;29;20054;-80
2022/01/18 01:04:48;;;;;;;3.53;1.98;;;;;;;;;;4809222;29;20050;-81
2022/01/18 01:07:37;;;;;;;3.40;2.08;;;;;;;;;;4809303;29;20063;-81
2022/01/18 01:10:23;;;;;;;7.55;3.20;;;;;;;;;;4809330;29;20039;-80
2022/01/18 01:13:10;;;;;;;16.40;3.40;;;;;;;;;;4808841;29;20043;-81
2022/01/18 01:19:20;;;;;;;4.15;2.38;;;;;;;;;;4809078;29;20054;-81
2022/01/18 01:46:12;;;;;;;4.55;2.25;;;;;;;;;;4808182;29;20046;-81
2022/01/18 01:49:00;;;;;;;8.40;2.97;;;;;;;;;;4808494;29;20058;-81
2022/01/18 01:51:47;;;;;;;2.45;1.70;;;;;;;;;;4808371;29;20051;-83
2022/01/18 01:54:33;;;;;;;2.40;1.80;;;;;;;;;;4808454;29;20055;-81
2022/01/18 01:57:18;;;;;;;4.70;2.33;;;;;;;;;;4814411;29;20055;-83
2022/01/18 02:00:12;;;;;;;19.65;6.78;;;;;;;;;;4800857;29;20067;-82
2022/01/18 02:02:57;;;;;;;9.10;2.50;;;;;;;;;;4808439;29;20062;-81
2022/01/18 02:05:44;;;;;;;4.13;1.50;;;;;;;;;;4814291;29;20407;-80
2022/01/18 02:08:30;;;;;;;3.30;2.08;;;;;;;;;;4808149;29;20054;-82
2022/01/18 02:11:15;;;;;;;3.67;1.92;;;;;;;;;;4807979;29;20046;-81
2022/01/18 02:14:02;;;;;;;4.82;1.35;;;;;;;;;;4808530;29;20051;-81
2022/01/18 02:22:55;;;;;;;5.75;1.67;;;;;;;;;;4807623;29;20050;-81
2022/01/18 02:25:41;;;;;;;6.07;2.80;;;;;;;;;;4813917;29;20051;-81
2022/01/18 02:28:27;;;;;;;5.15;2.50;;;;;;;;;;4807946;29;20078;-82
2022/01/18 02:31:12;;;;;;;2.60;1.48;;;;;;;;;;4814136;29;20050;-81
2022/01/18 02:34:07;;;;;;;3.47;2.00;;;;;;;;;;4807633;29;20047;-82
2022/01/18 02:36:54;;;;;;;6.50;2.78;;;;;;;;;;4793987;29;20039;-82
2022/01/18 02:39:39;;;;;;;7.82;2.83;;;;;;;;;;4807705;29;20043;-83
2022/01/18 02:42:30;;;;;;;4.70;2.10;;;;;;;;;;4794022;29;20092;-81
2022/01/18 02:45:16;;;;;;;2.10;1.48;;;;;;;;;;4808101;29;20055;-80
2022/01/18 02:48:03;;;;;;;5.03;2.38;;;;;;;;;;4807508;29;20047;-79
2022/01/18 02:50:49;;;;;;;6.05;2.92;;;;;;;;;;4813673;29;20050;-79
2022/01/18 02:53:57;;;;;;;4.82;2.28;;;;;;;;;;4807618;29;20046;-81
2022/01/18 02:56:48;;;;;;;3.13;1.67;;;;;;;;;;4807231;29;20407;-80
2022/01/18 03:00:07;;;;;;;2.30;1.90;;;;;;;;;;4807851;29;20051;-82
2022/01/18 03:06:07;;;;;;;4.55;2.15;;;;;;;;;;4801786;29;20047;-79
2022/01/18 03:08:52;;;;;;;4.65;2.40;;;;;;;;;;4794039;29;20430;-84
2022/01/18 03:11:38;;;;;;;5.60;1.95;;;;;;;;;;4794470;29;20046;-83
2022/01/18 03:14:24;;;;;;;4.45;2.75;;;;;;;;;;4810325;29;20055;-81
2022/01/18 03:17:09;;;;;;;3.78;1.92;;;;;;;;;;4807128;29;20047;-81
2022/01/18 03:19:55;;;;;;;5.70;1.85;;;;;;;;;;4813821;29;20059;-81
2022/01/18 03:22:41;;;;;;;4.75;2.35;;;;;;;;;;4807248;29;20070;-80
2022/01/18 03:25:41;;;;;;;7.25;2.63;;;;;;;;;;4806899;29;20058;-83
2022/01/18 03:28:27;;;;;;;3.28;2.20;;;;;;;;;;4807076;29;20051;-81
2022/01/18 03:31:12;;;;;;;8.07;3.30;;;;;;;;;;4812372;29;20050;-84
2022/01/18 03:33:58;;;;;;;7.10;3.95;;;;;;;;;;4806633;29;20046;-81
2022/01/18 03:36:43;;;;;;;2.03;1.67;;;;;;;;;;4807071;29;20407;-82
2022/01/18 03:39:29;;;;;;;3.72;1.90;;;;;;;;;;4806906;29;20054;-82
2022/01/18 03:45:25;;;;;;;2.20;1.50;;;;;;;;;;4812461;29;20055;-85
2022/01/18 03:48:28;;;;;;;2.10;1.63;;;;;;;;;;4807014;29;20059;-83
2022/01/18 03:51:14;;;;;;;5.25;2.42;;;;;;;;;;4806506;29;20050;-83
2022/01/18 03:54:00;;;;;;;4.38;2.13;;;;;;;;;;4806550;29;20050;-81
2022/01/18 03:56:45;;;;;;;5.70;1.88;;;;;;;;;;4812624;29;20055;-82
2022/01/18 03:59:33;;;;;;;3.33;2.35;;;;;;;;;;4812453;29;20055;-85
2022/01/18 04:02:17;;;;;;;2.72;1.83;;;;;;;;;;4806812;29;20047;-83
2022/01/18 04:05:03;;;;;;;2.83;1.95;;;;;;;;;;4806125;29;20054;-84
2022/01/18 04:07:49;;;;;;;4.13;1.55;;;;;;;;;;4812579;29;20051;-84
2022/01/18 04:10:34;;;;;;;2.97;1.75;;;;;;;;;;4812957;29;20059;-83
2022/01/18 04:13:20;;;;;;;1.30;1.17;;;;;;;;;;4806365;29;20047;-80
2022/01/18 04:16:06;;;;;;;4.30;2.28;;;;;;;;;;4812951;29;20055;-81
2022/01/18 04:18:58;;;;;;;5.25;2.60;;;;;;;;;;4808236;29;20047;-83
2022/01/18 04:28:02;;;;;;;4.75;2.33;;;;;;;;;;4809751;29;20487;-82
2022/01/18 04:30:47;;;;;;;2.55;1.63;;;;;;;;;;4810030;29;20050;-82
2022/01/18 04:33:34;;;;;;;6.05;1.90;;;;;;;;;;4809437;29;20050;-82
2022/01/18 04:36:20;;;;;;;1.45;1.13;;;;;;;;;;4815614;29;20050;-83
2022/01/18 04:39:05;;;;;;;3.85;2.00;;;;;;;;;;4810972;29;20055;-82
2022/01/18 04:41:51;;;;;;;4.13;2.20;;;;;;;;;;4809526;29;20055;-83
2022/01/18 04:50:44;;;;;;;3.83;2.30;;;;;;;;;;4809901;29;20047;-81
2022/01/18 04:53:32;;;;;;;3.20;2.17;;;;;;;;;;4809456;29;20054;-82
2022/01/18 04:56:26;;;;;;;3.97;2.17;;;;;;;;;;4809112;29;20047;-81
2022/01/18 04:59:13;;;;;;;3.20;2.17;;;;;;;;;;4809391;29;20051;-81
2022/01/18 05:01:57;;;;;;;5.78;2.40;;;;;;;;;;4809235;29;20055;-82
2022/01/18 05:04:43;;;;;;;11.00;3.00;;;;;;;;;;4809185;29;20047;-82
2022/01/18 05:07:29;;;;;;;8.30;3.78;;;;;;;;;;4815930;29;20055;-81
2022/01/18 05:10:16;;;;;;;8.07;3.33;;;;;;;;;;4800990;29;20070;-81
2022/01/18 05:13:12;;;;;;;11.93;3.08;;;;;;;;;;4809370;29;20051;-81
2022/01/18 05:16:48;;;;;;;11.10;3.60;;;;;;;;;;4814506;29;20050;-81
2022/01/18 05:24:39;;;;;;;6.55;2.70;;;;;;;;;;4790547;30;20415;-83
2022/01/18 05:27:25;;;;;;;6.65;3.08;;;;;;;;;;4790326;30;20059;-80
2022/01/18 05:30:14;;;;;;;7.95;3.60;;;;;;;;;;4770709;30;20226;-82
2022/01/18 05:32:59;;;;;;;9.35;3.88;;;;;;;;;;4785631;30;20423;-83
2022/01/18 05:35:44;;;;;;;12.63;5.40;;;;;;;;;;4771200;29;20055;-82
2022/01/18 05:38:32;;;;;;;8.70;3.45;;;;;;;;;;4789622;30;20060;-82
2022/01/18 05:41:18;;;;;;;6.35;3.15;;;;;;;;;;4785635;29;20059;-81
2022/01/18 05:44:04;;;;;;;5.35;3.08;;;;;;;;;;4790135;30;20055;-83
2022/01/18 05:46:49;;;;;;;9.30;3.70;;;;;;;;;;4790053;30;20047;-81
2022/01/18 05:49:34;;;;;;;14.05;5.50;;;;;;;;;;4789739;30;20043;-82
2022/01/18 05:52:19;;;;;;;8.20;3.75;;;;;;;;;;4802052;29;20051;-82
2022/01/18 05:55:06;;;;;;;5.10;2.85;;;;;;;;;;4808631;29;20059;-83
2022/01/18 05:57:51;;;;;;;3.05;2.00;;;;;;;;;;4808109;29;20047;-81
2022/01/18 06:00:39;;;;;;;8.68;3.30;;;;;;;;;;4808132;29;20403;-83
2022/01/18 06:06:51;;;;;;;9.90;5.55;;;;;;;;;;4760641;30;20059;-83
2022/01/18 06:09:36;;;;;;;8.07;4.50;;;;;;;;;;4778570;30;20483;-84
2022/01/18 06:12:24;;;;;;;10.63;4.90;;;;;;;;;;4771550;30;20047;-83
2022/01/18 06:15:10;;;;;;;8.25;3.60;;;;;;;;;;4772035;30;20043;-82
2022/01/18 06:17:57;;;;;;;7.45;3.30;;;;;;;;;;4789508;30;20059;-81
2022/01/18 06:20:43;;;;;;;5.25;3.05;;;;;;;;;;4795486;29;20059;-81
2022/01/18 06:23:29;;;;;;;11.90;4.30;;;;;;;;;;4790393;30;20055;-80
2022/01/18 06:26:16;;;;;;;12.45;6.18;;;;;;;;;;4789826;30;20051;-82
2022/01/18 06:29:02;;;;;;;14.45;6.65;;;;;;;;;;4789940;30;20055;-81
2022/01/18 06:31:48;;;;;;;13.63;7.47;;;;;;;;;;4785221;30;20047;-81
2022/01/18 06:34:34;;;;;;;12.82;6.53;;;;;;;;;;4789325;30;20059;-81
2022/01/18 06:37:19;;;;;;;17.85;9.55;;;;;;;;;;4783927;30;20063;-81
2022/01/18 06:40:09;;;;;;;27.40;13.20;;;;;;;;;;4789279;29;20395;-82
2022/01/18 06:42:54;;;;;;;28.92;15.75;;;;;;;;;;4789549;30;20491;-81
2022/01/18 06:45:40;;;;;;;33.05;14.85;;;;;;;;;;4789665;30;20043;-81
2022/01/18 06:48:25;;;;;;;30.23;15.23;;;;;;;;;;4789176;30;20047;-82
2022/01/18 06:51:11;;;;;;;27.23;14.52;;;;;;;;;;4796001;29;20051;-82
2022/01/18 06:53:57;;;;;;;22.25;10.90;;;;;;;;;;4789270;30;20055;-81
2022/01/18 06:56:46;;;;;;;19.20;9.98;;;;;;;;;;4771101;30;20051;-82
2022/01/18 06:59:31;;;;;;;17.65;8.90;;;;;;;;;;4794743;29;20051;-81
2022/01/18 07:02:15;;;;;;;13.75;6.38;;;;;;;;;;4788059;29;20503;-83
2022/01/18 07:05:01;;;;;;;13.10;6.18;;;;;;;;;;4784402;30;20043;-83
2022/01/18 07:07:47;;;;;;;10.27;5.13;;;;;;;;;;4771423;30;20055;-81
2022/01/18 07:10:32;;;;;;;14.32;5.63;;;;;;;;;;4771000;30;20044;-82
2022/01/18 07:13:18;;;;;;;12.73;5.80;;;;;;;;;;4789225;29;20047;-82
2022/01/18 07:16:04;;;;;;;14.05;7.35;;;;;;;;;;4786361;30;20420;-81
2022/01/18 07:18:49;;;;;;;20.63;8.70;;;;;;;;;;4789165;29;20047;-85
2022/01/18 07:21:35;;;;;;;18.63;10.07;;;;;;;;;;4792788;29;20051;-80
2022/01/18 07:24:36;;;;;;;25.20;15.07;;;;;;;;;;4783652;29;20050;-83
2022/01/18 07:27:22;;;;;;;28.38;13.48;;;;;;;;;;4786284;29;20483;-82
2022/01/18 07:30:11;;;;;;;27.27;12.48;;;;;;;;;;4787626;30;20407;-82
2022/01/18 07:32:56;;;;;;;27.88;14.43;;;;;;;;;;4788669;30;20415;-83
2022/01/18 07:35:42;;;;;;;29.67;16.48;;;;;;;;;;4788388;30;20068;-82
2022/01/18 07:38:27;;;;;;;32.22;14.00;;;;;;;;;;4764470;30;20052;-83
2022/01/18 07:41:13;;;;;;;25.92;12.60;;;;;;;;;;4774101;30;20050;-81
2022/01/18 07:43:58;;;;;;;26.02;12.05;;;;;;;;;;4776898;29;20051;-80
2022/01/18 07:46:44;;;;;;;21.67;12.15;;;;;;;;;;4810457;29;20439;-84
2022/01/18 07:49:29;;;;;;;23.58;10.70;;;;;;;;;;4795401;29;20047;-85
2022/01/18 07:52:18;;;;;;;131.90;55.60;;;;;;;;;;4788009;29;20051;-82
2022/01/18 07:55:05;;;;;;;26.63;11.68;;;;;;;;;;4788238;30;20051;-83
2022/01/18 07:57:50;;;;;;;184.07;84.38;;;;;;;;;;4788444;30;20051;-84
2022/01/18 08:00:36;;;;;;;32.10;15.93;;;;;;;;;;4793677;30;20059;-83
2022/01/18 08:03:21;;;;;;;1412.03;652.35;;;;;;;;;;4784900;30;20047;-84
2022/01/18 08:06:07;;;;;;;168.23;66.65;;;;;;;;;;4786303;30;20044;-81
2022/01/18 08:08:52;;;;;;;37.92;18.30;;;;;;;;;;4785935;30;20047;-84
2022/01/18 08:11:38;;;;;;;36.88;13.48;;;;;;;;;;4786593;30;20051;-83
2022/01/18 08:14:26;;;;;;;37.15;15.27;;;;;;;;;;4801950;29;20055;-83
2022/01/18 08:17:11;;;;;;;21.25;8.90;;;;;;;;;;4789580;29;20051;-81
2022/01/18 08:19:57;;;;;;;13.60;6.25;;;;;;;;;;4790243;29;20407;-82
2022/01/18 08:22:43;;;;;;;29.15;13.30;;;;;;;;;;4794368;30;20056;-82
2022/01/18 08:25:30;;;;;;;20.52;10.40;;;;;;;;;;4788673;30;20047;-83
2022/01/18 08:28:16;;;;;;;88.22;29.42;;;;;;;;;;4788247;30;20063;-82
2022/01/18 08:31:01;;;;;;;12.23;6.15;;;;;;;;;;4787977;30;20052;-83
2022/01/18 08:33:47;;;;;;;18.98;9.82;;;;;;;;;;4793830;30;20051;-83
2022/01/18 08:36:32;;;;;;;17.52;9.35;;;;;;;;;;4785378;30;20048;-84
2022/01/18 08:39:18;;;;;;;16.55;6.72;;;;;;;;;;4788491;30;20395;-83
2022/01/18 08:42:04;;;;;;;8.48;3.72;;;;;;;;;;4788075;30;20047;-81
2022/01/18 08:44:49;;;;;;;10.02;4.53;;;;;;;;;;4787263;30;20043;-81
2022/01/18 08:47:35;;;;;;;12.60;5.15;;;;;;;;;;4781150;30;20371;-83
2022/01/18 08:50:20;;;;;;;13.73;5.00;;;;;;;;;;4787659;30;20047;-80
2022/01/18 08:53:06;;;;;;;19.85;3.50;;;;;;;;;;4788066;30;20051;-81
2022/01/18 08:55:52;;;;;;;13.13;5.50;;;;;;;;;;4788216;30;20055;-80
2022/01/18 08:58:38;;;;;;;9.13;4.15;;;;;;;;;;4788172;30;20060;-82
2022/01/18 09:01:23;;;;;;;8.13;3.50;;;;;;;;;;4787673;30;20051;-80
2022/01/18 09:04:08;;;;;;;8.75;3.60;;;;;;;;;;4788587;29;20059;-81
2022/01/18 09:06:56;;;;;;;14.63;4.82;;;;;;;;;;4796368;29;20051;-80
2022/01/18 09:09:42;;;;;;;8.38;3.88;;;;;;;;;;4779772;30;20469;-82
2022/01/18 09:12:27;;;;;;;14.13;5.38;;;;;;;;;;4784447;30;20059;-80
2022/01/18 09:15:12;;;;;;;8.57;4.10;;;;;;;;;;4790819;30;20055;-80
2022/01/18 09:17:58;;;;;;;18.27;6.53;;;;;;;;;;4796470;29;20495;-79
2022/01/18 09:20:44;;;;;;;11.57;6.25;;;;;;;;;;4790308;30;20059;-83
2022/01/18 09:23:29;;;;;;;13.10;6.22;;;;;;;;;;4783351;29;20055;-82
2022/01/18 09:26:15;;;;;;;19.90;6.38;;;;;;;;;;4796385;29;20055;-82
2022/01/18 09:29:01;;;;;;;12.07;5.88;;;;;;;;;;4790893;30;20039;-81
2022/01/18 09:31:47;;;;;;;13.00;5.15;;;;;;;;;;4791004;30;20084;-80
2022/01/18 09:34:32;;;;;;;9.90;4.63;;;;;;;;;;4790522;30;20476;-82
2022/01/18 09:37:17;;;;;;;11.40;5.10;;;;;;;;;;4789364;29;20499;-82
2022/01/18 09:40:04;;;;;;;10.05;4.32;;;;;;;;;;4790468;30;20425;-82
2022/01/18 09:42:54;;;;;;;13.73;5.63;;;;;;;;;;4796465;29;20483;-83
2022/01/18 09:45:42;;;;;;;21.35;7.25;;;;;;;;;;4789753;30;20047;-81
2022/01/18 09:48:28;;;;;;;14.00;5.18;;;;;;;;;;4790832;30;20060;-83
2022/01/18 09:51:13;;;;;;;26.45;10.38;;;;;;;;;;4775531;30;20051;-82
2022/01/18 09:53:59;;;;;;;18.77;7.97;;;;;;;;;;4796286;29;20437;-82
2022/01/18 09:56:44;;;;;;;10.63;5.32;;;;;;;;;;4794373;30;20051;-82
2022/01/18 09:59:30;;;;;;;16.10;6.97;;;;;;;;;;4802194;29;20047;-80
2022/01/18 10:02:15;;;;;;;15.82;4.90;;;;;;;;;;4796633;30;20059;-81
2022/01/18 10:05:19;;;;;;;14.00;5.40;;;;;;;;;;4795660;30;20051;-82
2022/01/18 10:08:10;;;;;;;15.43;5.28;;;;;;;;;;4796416;30;20055;-82
2022/01/18 10:10:58;;;;;;;11.23;4.60;;;;;;;;;;4795610;30;20499;-82
2022/01/18 10:13:46;;;;;;;18.08;7.10;;;;;;;;;;4794671;29;20059;-83
2022/01/18 10:16:31;;;;;;;10.23;5.57;;;;;;;;;;4788416;29;20055;-82
2022/01/18 10:19:33;;;;;;;16.10;6.18;;;;;;;;;;4792652;29;20055;-84
2022/01/18 10:22:24;;;;;;;20.35;8.98;;;;;;;;;;4794181;29;20059;-81
2022/01/18 10:25:25;;;;;;;12.60;5.45;;;;;;;;;;4789673;30;20059;-81
2022/01/18 10:28:29;;;;;;;19.48;6.72;;;;;;;;;;4789812;30;20047;-83
2022/01/18 10:31:27;;;;;;;16.55;5.90;;;;;;;;;;4788233;30;20063;-83
2022/01/18 10:37:25;;;;;;;12.02;5.72;;;;;;;;;;4786730;30;20059;-82
2022/01/18 10:40:17;;;;;;;9.75;3.05;;;;;;;;;;4787877;30;20055;-83
2022/01/18 10:43:06;;;;;;;9.95;5.57;;;;;;;;;;4795255;29;20055;-82
2022/01/18 10:46:11;;;;;;;17.05;6.43;;;;;;;;;;4783402;30;20538;-82
2022/01/18 10:48:56;;;;;;;6.00;4.05;;;;;;;;;;4792384;29;20055;-82
2022/01/18 10:51:43;;;;;;;7.22;3.55;;;;;;;;;;4789023;30;20051;-83
2022/01/18 10:54:42;;;;;;;13.88;5.18;;;;;;;;;;4795188;29;20051;-82
2022/01/18 10:57:36;;;;;;;9.57;4.75;;;;;;;;;;4767266;30;20428;-84
2022/01/18 11:00:25;;;;;;;9.60;4.05;;;;;;;;;;4771152;30;20051;-82
2022/01/18 11:03:11;;;;;;;11.90;3.97;;;;;;;;;;4771307;30;20059;-84
2022/01/18 11:05:56;;;;;;;13.82;5.25;;;;;;;;;;4770872;30;20052;-80
2022/01/18 11:08:42;;;;;;;15.40;7.25;;;;;;;;;;4771128;30;20048;-82
2022/01/18 11:11:27;;;;;;;11.25;4.15;;;;;;;;;;4780053;29;20432;-81
2022/01/18 11:14:21;;;;;;;10.02;5.07;;;;;;;;;;4786261;30;20044;-82
2022/01/18 11:17:09;;;;;;;11.32;5.38;;;;;;;;;;4791970;29;20464;-82
2022/01/18 11:19:57;;;;;;;14.85;5.40;;;;;;;;;;4787718;30;20047;-81
2022/01/18 11:22:43;;;;;;;13.00;4.95;;;;;;;;;;4788123;30;20055;-84
2022/01/18 11:25:29;;;;;;;7.78;2.92;;;;;;;;;;4793682;29;20051;-81
2022/01/18 11:28:14;;;;;;;10.20;4.93;;;;;;;;;;4770203;30;20055;-81
2022/01/18 11:30:59;;;;;;;13.00;5.95;;;;;;;;;;4781895;30;20059;-81
2022/01/18 11:33:54;;;;;;;10.77;5.43;;;;;;;;;;4794331;29;20430;-81
2022/01/18 11:36:46;;;;;;;11.43;4.88;;;;;;;;;;4788158;30;20043;-83
2022/01/18 11:39:31;;;;;;;11.52;5.28;;;;;;;;;;4790664;29;20059;-80
2022/01/18 11:42:16;;;;;;;10.77;5.30;;;;;;;;;;4786972;29;20047;-80
2022/01/18 11:45:25;;;;;;;11.60;5.40;;;;;;;;;;4791043;29;20059;-82
2022/01/18 11:48:19;;;;;;;14.27;6.45;;;;;;;;;;4792545;29;20051;-80
2022/01/18 11:51:06;;;;;;;10.93;5.15;;;;;;;;;;4788583;30;20410;-80
2022/01/18 11:54:06;;;;;;;6.78;3.60;;;;;;;;;;4788064;30;20051;-81
2022/01/18 11:56:51;;;;;;;6.15;3.33;;;;;;;;;;4788246;30;20403;-79
2022/01/18 11:59:39;;;;;;;12.32;5.10;;;;;;;;;;4788826;30;20051;-78
2022/01/18 12:02:29;;;;;;;11.82;4.28;;;;;;;;;;4794076;30;20051;-81
2022/01/18 12:05:21;;;;;;;10.20;5.47;;;;;;;;;;4787625;30;20051;-79
2022/01/18 12:08:06;;;;;;;7.53;4.03;;;;;;;;;;4788020;30;20059;-80
2022/01/18 12:10:52;;;;;;;8.65;4.18;;;;;;;;;;4797279;29;20487;-79
2022/01/18 12:13:41;;;;;;;22.52;9.45;;;;;;;;;;4785376;30;20048;-81
2022/01/18 12:16:29;;;;;;;13.77;6.13;;;;;;;;;;4786039;29;20055;-79
2022/01/18 12:19:15;;;;;;;11.20;4.20;;;;;;;;;;4787889;30;20059;-79
2022/01/18 12:22:00;;;;;;;18.55;7.25;;;;;;;;;;4788143;30;20055;-80
2022/01/18 12:24:47;;;;;;;14.63;7.32;;;;;;;;;;4787822;30;20043;-81
2022/01/18 12:27:35;;;;;;;7.75;3.80;;;;;;;;;;4788716;30;20044;-83
2022/01/18 12:30:53;;;;;;;11.18;4.93;;;;;;;;;;4787749;30;20047;-84
2022/01/18 12:33:46;;;;;;;13.80;5.80;;;;;;;;;;4789273;29;20047;-80
2022/01/18 12:36:31;;;;;;;13.73;6.15;;;;;;;;;;4797996;29;20058;-79
2022/01/18 12:39:17;;;;;;;13.85;5.63;;;;;;;;;;4784964;29;20056;-82
2022/01/18 12:42:20;;;;;;;17.15;6.90;;;;;;;;;;4791126;29;20499;-83
2022/01/18 12:45:05;;;;;;;7.65;3.83;;;;;;;;;;4786348;29;20059;-81
2022/01/18 12:48:02;;;;;;;11.35;4.30;;;;;;;;;;4792586;29;20065;-81
2022/01/18 12:50:53;;;;;;;12.68;5.82;;;;;;;;;;4800306;29;20051;-82
2022/01/18 12:53:39;;;;;;;10.63;4.32;;;;;;;;;;4795847;29;20043;-80
2022/01/18 12:56:25;;;;;;;15.30;6.78;;;;;;;;;;4797580;29;20047;-81
2022/01/18 12:59:10;;;;;;;16.58;6.47;;;;;;;;;;4772275;30;20059;-82
2022/01/18 13:01:55;;;;;;;13.77;6.95;;;;;;;;;;4779046;30;20059;-78
2022/01/18 13:04:40;;;;;;;22.05;8.82;;;;;;;;;;4773431;30;20060;-81
2022/01/18 13:07:26;;;;;;;49.30;19.38;;;;;;;;;;4787896;30;20062;-79
2022/01/18 13:10:12;;;;;;;22.27;9.23;;;;;;;;;;4792946;29;20051;-81
2022/01/18 13:12:59;;;;;;;13.48;5.93;;;;;;;;;;4772699;30;20055;-82
2022/01/18 13:25:08;;;;;;;12.77;4.43;;;;;;;;;;4798108;29;20054;-81
2022/01/18 13:28:01;;;;;;;11.02;4.15;;;;;;;;;;4790194;29;20460;-81
2022/01/18 13:30:46;;;;;;;9.23;4.80;;;;;;;;;;4789955;29;20059;-81
2022/01/18 13:33:57;;;;;;;20.10;11.00;;;;;;;;;;4789992;30;20432;-81
2022/01/18 13:36:57;;;;;;;36.80;19.58;;;;;;;;;;4790623;30;20055;-80
2022/01/18 13:39:51;;;;;;;12.02;5.15;;;;;;;;;;4796898;29;20051;-81
2022/01/18 13:42:50;;;;;;;9.73;4.88;;;;;;;;;;4790475;30;20060;-81
2022/01/18 13:45:37;;;;;;;13.80;5.25;;;;;;;;;;4788989;30;20413;-80
2022/01/18 13:48:32;;;;;;;11.15;5.82;;;;;;;;;;4783908;29;20051;-82
2022/01/18 13:51:19;;;;;;;17.88;7.70;;;;;;;;;;4796212;29;20047;-82
2022/01/18 13:54:08;;;;;;;18.48;8.45;;;;;;;;;;4789041;29;20428;-81
2022/01/18 13:56:55;;;;;;;13.90;7.30;;;;;;;;;;4789844;30;20055;-81
2022/01/18 13:59:41;;;;;;;9.68;5.53;;;;;;;;;;4783626;30;20051;-80
2022/01/18 14:02:29;;;;;;;13.15;6.28;;;;;;;;;;4789535;30;20399;-79
2022/01/18 14:05:18;;;;;;;10.25;5.50;;;;;;;;;;4789411;30;20054;-82
2022/01/18 14:08:07;;;;;;;14.15;5.00;;;;;;;;;;4778261;30;20055;-79
2022/01/18 14:11:07;;;;;;;11.77;6.60;;;;;;;;;;4771999;30;20056;-83
2022/01/18 14:13:54;;;;;;;15.18;5.97;;;;;;;;;;4773609;30;20055;-81
2022/01/18 14:16:46;;;;;;;15.82;5.90;;;;;;;;;;4789442;30;20047;-80
2022/01/18 14:19:40;;;;;;;9.15;4.53;;;;;;;;;;4790260;30;20048;-80
2022/01/18 14:22:27;;;;;;;11.32;5.25;;;;;;;;;;4789772;30;20063;-79
2022/01/18 14:25:13;;;;;;;11.57;5.78;;;;;;;;;;4788964;30;20075;-79
2022/01/18 14:28:14;;;;;;;9.05;4.35;;;;;;;;;;4789303;30;20059;-79
2022/01/18 14:31:07;;;;;;;13.23;4.80;;;;;;;;;;4789278;30;20488;-83
2022/01/18 14:33:52;;;;;;;13.95;7.07;;;;;;;;;;4789879;30;20051;-82
2022/01/18 14:36:53;;;;;;;18.80;8.07;;;;;;;;;;4793514;29;20499;-81
2022/01/18 14:40:00;;;;;;;18.02;6.93;;;;;;;;;;4772774;29;20063;-80
2022/01/18 14:42:49;;;;;;;9.75;5.70;;;;;;;;;;4789603;30;20051;-81
2022/01/18 14:45:41;;;;;;;8.18;4.32;;;;;;;;;;4789689;30;20059;-82
2022/01/18 14:48:30;;;;;;;7.05;4.80;;;;;;;;;;4787586;30;20055;-82
2022/01/18 14:51:15;;;;;;;14.23;7.10;;;;;;;;;;4798958;29;20058;-82
2022/01/18 14:54:01;;;;;;;11.02;4.55;;;;;;;;;;4788973;30;20047;-81
2022/01/18 14:56:47;;;;;;;12.23;6.63;;;;;;;;;;4789417;30;20051;-83
2022/01/18 14:59:32;;;;;;;12.02;6.10;;;;;;;;;;4789201;30;20407;-80
2022/01/18 15:02:18;;;;;;;17.27;7.32;;;;;;;;;;4787142;29;20047;-80
2022/01/18 15:05:04;;;;;;;24.23;11.30;;;;;;;;;;4789439;30;20066;-82
2022/01/18 15:07:50;;;;;;;26.85;11.18;;;;;;;;;;4771857;30;20056;-82
2022/01/18 15:10:35;;;;;;;12.63;6.00;;;;;;;;;;4771279;30;20411;-80
2022/01/18 15:13:21;;;;;;;11.05;5.68;;;;;;;;;;4771393;30;20051;-80
2022/01/18 15:16:08;;;;;;;16.35;6.18;;;;;;;;;;4775413;29;20055;-83
2022/01/18 15:18:54;;;;;;;12.68;6.22;;;;;;;;;;4787404;30;20047;-84
2022/01/18 15:21:39;;;;;;;27.38;12.40;;;;;;;;;;4793379;29;20047;-83
2022/01/18 15:24:25;;;;;;;44.35;18.90;;;;;;;;;;4789066;30;20459;-83
2022/01/18 15:27:11;;;;;;;37.03;18.45;;;;;;;;;;4786314;30;20047;-82
2022/01/18 15:29:56;;;;;;;50.40;23.30;;;;;;;;;;4786889;30;20059;-85
2022/01/18 15:32:44;;;;;;;44.08;19.52;;;;;;;;;;4789407;30;20055;-82
2022/01/18 15:35:30;;;;;;;36.58;16.35;;;;;;;;;;4794496;29;20475;-82
2022/01/18 15:38:15;;;;;;;35.28;17.05;;;;;;;;;;4792115;29;20387;-81
2022/01/18 15:41:00;;;;;;;41.20;16.50;;;;;;;;;;4788317;30;20051;-85
2022/01/18 15:43:47;;;;;;;40.97;18.17;;;;;;;;;;4789373;30;20067;-81
2022/01/18 15:46:33;;;;;;;21.17;10.38;;;;;;;;;;4795201;29;20047;-83
2022/01/18 15:49:21;;;;;;;33.80;14.50;;;;;;;;;;4791293;30;20487;-84
2022/01/18 15:52:06;;;;;;;29.70;13.23;;;;;;;;;;4788339;30;20051;-85
2022/01/18 15:54:52;;;;;;;45.35;19.80;;;;;;;;;;4791045;29;20043;-82
2022/01/18 15:57:41;;;;;;;20.70;8.38;;;;;;;;;;4791684;29;20047;-85
2022/01/18 16:00:25;;;;;;;31.75;13.05;;;;;;;;;;4781669;30;20052;-87
2022/01/18 16:03:12;;;;;;;76.43;24.70;;;;;;;;;;4779194;30;20055;-85
2022/01/18 16:06:00;;;;;;;111.22;37.80;;;;;;;;;;4813415;24;21128;-80
2022/01/18 16:08:48;;;;;;;46.00;15.68;;;;;;;;;;4805928;29;20063;-80
2022/01/18 16:11:34;;;;;;;25.20;10.98;;;;;;;;;;4782519;29;20063;-79
2022/01/18 16:14:21;;;;;;;43.25;18.67;;;;;;;;;;4808435;29;20047;-79
2022/01/18 16:17:07;;;;;;;53.47;24.75;;;;;;;;;;4816514;29;20043;-79
2022/01/18 16:19:53;;;;;;;82.20;37.00;;;;;;;;;;4816056;29;20046;-79
2022/01/18 16:22:38;;;;;;;72.70;33.38;;;;;;;;;;4809471;29;20047;-79
2022/01/18 16:25:24;;;;;;;70.97;32.83;;;;;;;;;;4809977;29;20051;-78
2022/01/18 16:28:10;;;;;;;73.97;33.80;;;;;;;;;;4815016;29;20050;-80
2022/01/18 16:30:56;;;;;;;109.00;45.58;;;;;;;;;;4810026;29;20050;-80
2022/01/18 16:33:42;;;;;;;120.13;48.85;;;;;;;;;;4809974;29;20493;-79
2022/01/18 16:36:28;;;;;;;76.28;36.63;;;;;;;;;;4809473;29;20051;-79
2022/01/18 16:39:13;;;;;;;52.85;27.63;;;;;;;;;;4810118;29;20398;-78
2022/01/18 16:41:59;;;;;;;148.10;50.75;;;;;;;;;;4809466;29;20397;-80
2022/01/18 16:44:45;;;;;;;132.38;53.30;;;;;;;;;;4790004;29;20062;-80
2022/01/18 16:47:35;;;;;;;88.53;40.80;;;;;;;;;;4816194;29;20051;-78
2022/01/18 16:50:22;;;;;;;59.88;28.52;;;;;;;;;;4808940;29;20055;-80
2022/01/18 16:53:09;;;;;;;95.78;38.67;;;;;;;;;;4815415;29;20039;-80
2022/01/18 16:56:02;;;;;;;100.55;42.85;;;;;;;;;;4808655;29;20062;-79
2022/01/18 16:58:50;;;;;;;90.78;38.05;;;;;;;;;;4809608;29;20062;-80
2022/01/18 17:01:38;;;;;;;91.75;39.20;;;;;;;;;;4815064;29;20047;-80
2022/01/18 17:04:23;;;;;;;84.25;37.55;;;;;;;;;;4809094;29;20054;-79
2022/01/18 17:07:07;;;;;;;97.40;39.47;;;;;;;;;;4811811;29;20054;-78
2022/01/18 17:09:53;;;;;;;72.05;31.25;;;;;;;;;;4817395;29;20047;-79
2022/01/18 17:12:39;;;;;;;49.03;22.05;;;;;;;;;;4798053;29;20055;-79
2022/01/18 17:15:25;;;;;;;65.25;26.60;;;;;;;;;;4810490;29;20055;-79
2022/01/18 17:18:11;;;;;;;49.08;20.35;;;;;;;;;;4811875;29;20058;-79
2022/01/18 17:20:58;;;;;;;48.10;19.90;;;;;;;;;;4813751;29;20502;-79
2022/01/18 17:23:43;;;;;;;45.70;18.33;;;;;;;;;;4818796;29;20482;-79
2022/01/18 17:26:28;;;;;;;33.72;15.77;;;;;;;;;;4811415;29;20046;-80
2022/01/18 17:29:15;;;;;;;37.00;18.25;;;;;;;;;;4812676;29;20059;-77
2022/01/18 17:32:01;;;;;;;39.67;15.90;;;;;;;;;;4816949;29;20054;-78
2022/01/18 17:34:48;;;;;;;23.27;11.85;;;;;;;;;;4810596;29;20478;-79
2022/01/18 17:37:35;;;;;;;33.42;15.68;;;;;;;;;;4804951;29;20051;-79
2022/01/18 17:40:21;;;;;;;39.13;19.77;;;;;;;;;;4819331;29;20046;-79
2022/01/18 17:43:06;;;;;;;43.70;20.75;;;;;;;;;;4817843;29;20058;-80
2022/01/18 17:45:57;;;;;;;50.50;22.60;;;;;;;;;;4810185;29;20050;-80
2022/01/18 17:48:42;;;;;;;134.52;49.22;;;;;;;;;;4815660;29;20054;-79
2022/01/18 17:51:28;;;;;;;123.05;46.55;;;;;;;;;;4809363;29;20050;-79